Time;durP1;ratioP1;P1;durP2;ratioP2;P2;SDS_P1;SDS_P2;PMS_P1;PMS_P2;Temp;Humidity;BMP_temperature;BMP_pressure;BME280_temperature;BME280_humidity;BME280_pressure;Samples;Min_cycle;Max_cycle;Signal;HPM_P1;HPM_P2
2021/07/02 00:00:25;;;;;;;21.27;10.52;;;;;;;12.44;91.82;100262.41;4982577;28;20063;-71
2021/07/02 00:02:52;;;;;;;20.95;11.30;;;;;;;12.40;91.06;100258.19;4981038;28;20055;-70
2021/07/02 00:05:18;;;;;;;18.02;12.27;;;;;;;12.39;91.05;100251.13;4979456;28;20062;-70
2021/07/02 00:07:45;;;;;;;21.33;11.48;;;;;;;12.36;91.76;100249.53;4978929;28;20051;-72
2021/07/02 00:10:12;;;;;;;20.17;12.50;;;;;;;12.40;91.43;100252.84;4978990;28;20051;-70
2021/07/02 00:12:38;;;;;;;33.78;12.40;;;;;;;12.39;91.49;100259.16;4978783;28;20050;-71
2021/07/02 00:15:06;;;;;;;25.73;12.05;;;;;;;12.45;90.81;100259.63;4978489;28;20487;-73
2021/07/02 00:17:33;;;;;;;21.38;11.77;;;;;;;12.48;90.50;100253.22;4978693;28;20047;-70
2021/07/02 00:19:59;;;;;;;19.58;11.77;;;;;;;12.44;90.14;100257.91;4984432;28;20375;-72
2021/07/02 00:22:26;;;;;;;20.77;12.38;;;;;;;12.45;90.40;100254.28;4998126;28;20050;-71
2021/07/02 00:24:53;;;;;;;22.30;11.63;;;;;;;12.53;90.21;100253.72;4997923;28;20355;-72
2021/07/02 00:27:20;;;;;;;19.70;11.57;;;;;;;12.57;89.64;100252.56;4997796;28;20439;-69
2021/07/02 00:29:46;;;;;;;18.65;11.73;;;;;;;12.52;90.03;100252.03;4997855;28;20121;-69
2021/07/02 00:32:13;;;;;;;22.77;12.13;;;;;;;12.49;90.05;100244.22;4997834;28;20100;-70
2021/07/02 00:34:40;;;;;;;20.02;11.85;;;;;;;12.58;89.57;100250.78;4996992;28;20191;-72
2021/07/02 00:37:06;;;;;;;23.50;11.95;;;;;;;12.59;89.92;100242.59;4997697;28;20092;-72
2021/07/02 00:39:33;;;;;;;23.25;12.18;;;;;;;12.62;89.77;100249.59;4997909;28;20456;-71
2021/07/02 00:42:00;;;;;;;22.85;12.27;;;;;;;12.59;89.89;100241.78;4997524;28;20058;-71
2021/07/02 00:44:56;;;;;;;23.80;11.65;;;;;;;12.59;90.51;100242.59;4998014;28;20050;-72
2021/07/02 00:47:22;;;;;;;23.77;11.35;;;;;;;12.62;90.00;100242.41;4992980;28;20050;-70
2021/07/02 00:49:49;;;;;;;20.23;11.75;;;;;;;12.68;89.52;100237.59;4997923;28;20046;-73
2021/07/02 00:52:16;;;;;;;17.52;11.43;;;;;;;12.70;89.37;100227.63;4997254;28;20050;-70
2021/07/02 00:54:45;;;;;;;24.55;11.93;;;;;;;12.64;90.01;100234.25;4997797;28;20058;-72
2021/07/02 00:57:12;;;;;;;20.35;11.30;;;;;;;12.65;89.47;100232.44;4997946;28;20658;-70
2021/07/02 00:59:41;;;;;;;21.67;11.23;;;;;;;12.72;89.49;100228.38;5000217;28;20042;-69
2021/07/02 01:02:08;;;;;;;16.15;11.05;;;;;;;12.71;89.26;100235.56;5003271;28;20108;-70
2021/07/02 01:04:36;;;;;;;22.88;11.85;;;;;;;12.66;89.50;100227.00;4999906;28;20093;-73
2021/07/02 01:07:03;;;;;;;23.83;12.15;;;;;;;12.62;89.96;100228.16;4997194;28;20117;-72
2021/07/02 01:09:30;;;;;;;18.02;11.65;;;;;;;12.48;90.17;100202.34;4997380;28;20571;-72
2021/07/02 01:11:58;;;;;;;24.55;11.48;;;;;;;12.56;89.51;100234.81;4995833;28;20499;-72
2021/07/02 01:14:25;;;;;;;24.33;12.32;;;;;;;12.59;89.20;100231.06;4997085;28;20157;-72
2021/07/02 01:16:51;;;;;;;26.00;11.43;;;;;;;12.52;88.92;100230.59;4997019;28;20050;-71
2021/07/02 01:19:18;;;;;;;20.45;11.30;;;;;;;12.46;89.98;100231.03;4996566;28;20443;-72
2021/07/02 01:21:45;;;;;;;18.92;11.68;;;;;;;12.39;90.44;100227.91;4977557;28;20059;-70
2021/07/02 01:24:12;;;;;;;24.05;11.93;;;;;;;12.41;90.48;100226.00;4977727;28;20050;-70
2021/07/02 01:26:40;;;;;;;23.00;12.02;;;;;;;12.28;90.68;100223.28;4977269;28;20579;-70
2021/07/02 01:29:07;;;;;;;23.10;11.98;;;;;;;12.29;91.10;100230.34;4977397;28;20083;-70
2021/07/02 01:31:34;;;;;;;23.98;12.90;;;;;;;12.20;91.60;100217.59;4976223;28;20051;-71
2021/07/02 01:34:00;;;;;;;25.27;11.77;;;;;;;12.22;90.73;100211.16;4977162;28;20145;-70
2021/07/02 01:36:27;;;;;;;22.17;11.98;;;;;;;12.21;91.27;100220.16;4977527;28;20466;-71
2021/07/02 01:38:54;;;;;;;23.08;12.88;;;;;;;12.21;91.30;100228.19;4977135;28;20421;-72
2021/07/02 01:41:20;;;;;;;23.52;12.15;;;;;;;12.12;91.62;100218.09;4976146;28;20062;-69
2021/07/02 01:43:47;;;;;;;19.10;12.13;;;;;;;12.13;91.75;100226.97;4977234;28;20401;-70
2021/07/02 01:46:15;;;;;;;24.27;12.43;;;;;;;12.11;92.09;100223.56;4976993;28;20047;-72
2021/07/02 01:48:43;;;;;;;23.67;12.25;;;;;;;12.12;92.10;100219.91;4977026;28;20089;-72
2021/07/02 01:51:10;;;;;;;23.42;13.07;;;;;;;12.13;91.68;100217.16;4977000;28;20054;-69
2021/07/02 01:53:36;;;;;;;20.00;12.57;;;;;;;12.10;92.50;100212.00;4977231;28;20054;-69
2021/07/02 01:56:04;;;;;;;22.42;12.30;;;;;;;12.05;91.81;100209.63;4976881;28;20058;-69
2021/07/02 01:58:31;;;;;;;21.83;12.30;;;;;;;12.05;92.09;100217.66;4975758;28;20441;-69
2021/07/02 02:00:57;;;;;;;24.83;12.45;;;;;;;12.11;92.05;100211.03;4976798;28;20448;-71
2021/07/02 02:03:24;;;;;;;23.42;12.82;;;;;;;12.08;91.21;100212.09;4976539;28;20350;-71
2021/07/02 02:05:51;;;;;;;25.98;13.02;;;;;;;12.06;91.34;100208.69;4976656;28;20113;-71
2021/07/02 02:08:17;;;;;;;23.63;12.70;;;;;;;12.09;91.09;100213.81;4975555;28;20059;-69
2021/07/02 02:10:44;;;;;;;23.38;12.80;;;;;;;12.03;91.80;100211.53;4976687;28;20596;-70
2021/07/02 02:13:11;;;;;;;24.20;13.00;;;;;;;11.94;91.44;100204.13;4976609;28;20054;-71
2021/07/02 02:15:37;;;;;;;30.25;12.05;;;;;;;11.93;91.85;100191.69;4976612;28;20063;-72
2021/07/02 02:18:04;;;;;;;25.73;13.10;;;;;;;11.98;92.01;100200.25;4976734;28;20054;-70
2021/07/02 02:20:31;;;;;;;20.02;11.63;;;;;;;11.93;91.86;100213.09;4986657;28;20104;-70
2021/07/02 02:22:58;;;;;;;26.30;13.23;;;;;;;11.90;92.08;100211.47;4995361;28;20050;-72
2021/07/02 02:25:24;;;;;;;27.23;12.48;;;;;;;11.88;91.92;100207.19;4995761;28;20116;-70
2021/07/02 02:27:51;;;;;;;25.20;12.88;;;;;;;11.82;92.55;100206.63;4996034;28;20061;-73
2021/07/02 02:30:18;;;;;;;21.85;12.95;;;;;;;11.80;92.36;100192.50;4995743;28;20577;-72
2021/07/02 02:32:45;;;;;;;21.77;12.63;;;;;;;11.85;93.94;100207.38;4995638;28;20050;-70
2021/07/02 02:35:12;;;;;;;19.08;11.93;;;;;;;11.82;92.64;100209.31;4994958;28;20064;-71
2021/07/02 02:37:39;;;;;;;24.63;13.30;;;;;;;11.78;93.05;100201.59;4994671;28;20054;-73
2021/07/02 02:40:07;;;;;;;28.92;12.57;;;;;;;11.71;92.51;100195.75;4996042;28;20403;-70
2021/07/02 02:42:35;;;;;;;24.45;13.40;;;;;;;11.75;93.26;100194.63;4995554;28;20085;-71
2021/07/02 02:45:04;;;;;;;20.30;13.15;;;;;;;11.75;92.70;100199.09;4978751;28;20466;-70
2021/07/02 02:47:31;;;;;;;21.98;12.57;;;;;;;11.80;92.88;100196.97;4994570;28;20116;-70
2021/07/02 02:49:58;;;;;;;24.38;13.40;;;;;;;11.71;92.75;100189.56;4994597;28;20525;-72
2021/07/02 02:52:24;;;;;;;26.08;13.60;;;;;;;11.76;92.82;100195.50;4995680;28;20065;-69
2021/07/02 02:54:51;;;;;;;21.75;12.73;;;;;;;11.72;92.88;100194.81;4995702;28;20050;-72
2021/07/02 02:57:18;;;;;;;24.92;12.80;;;;;;;11.72;92.70;100189.44;4995722;28;20100;-71
2021/07/02 02:59:44;;;;;;;25.45;13.55;;;;;;;11.76;92.49;100195.50;4995857;28;20097;-72
2021/07/02 03:02:11;;;;;;;24.33;13.57;;;;;;;11.75;92.47;100199.09;4994763;28;20050;-70
2021/07/02 03:04:40;;;;;;;26.60;13.27;;;;;;;11.77;92.73;100199.88;4995819;28;20108;-70
2021/07/02 03:07:07;;;;;;;22.25;12.60;;;;;;;11.75;93.00;100201.78;4995499;28;20533;-70
2021/07/02 03:09:35;;;;;;;23.67;13.02;;;;;;;11.77;92.50;100203.38;4978268;28;20391;-71
2021/07/02 03:12:01;;;;;;;26.67;12.85;;;;;;;11.79;92.79;100200.63;4995801;28;20100;-71
2021/07/02 03:14:28;;;;;;;32.70;14.13;;;;;;;11.69;92.72;100189.66;4995238;28;20773;-70
2021/07/02 03:16:55;;;;;;;22.88;12.32;;;;;;;11.76;92.91;100196.31;4995943;28;20380;-71
2021/07/02 03:19:22;;;;;;;23.48;13.73;;;;;;;11.74;93.50;100192.03;4998611;28;20108;-72
2021/07/02 03:21:49;;;;;;;24.48;14.10;;;;;;;11.77;93.20;100190.03;4975232;28;20395;-70
2021/07/02 03:24:15;;;;;;;21.98;13.27;;;;;;;11.76;92.78;100182.97;4976171;28;20054;-72
2021/07/02 03:26:42;;;;;;;24.70;14.07;;;;;;;11.65;92.97;100175.66;4982469;28;20151;-68
2021/07/02 03:29:09;;;;;;;26.63;14.88;;;;;;;11.76;92.81;100201.69;4982908;28;20454;-70
2021/07/02 03:31:35;;;;;;;23.58;13.68;;;;;;;11.74;93.00;100195.59;4979917;28;20046;-69
2021/07/02 03:34:03;;;;;;;28.45;13.18;;;;;;;11.78;92.57;100196.25;4976232;28;20059;-72
2021/07/02 03:36:31;;;;;;;25.20;13.48;;;;;;;11.78;92.49;100197.06;4979830;28;20055;-71
2021/07/02 03:38:57;;;;;;;22.98;13.00;;;;;;;11.78;92.87;100202.41;4979313;28;20079;-72
2021/07/02 03:41:24;;;;;;;22.35;13.98;;;;;;;11.75;93.64;100202.63;4979571;28;20051;-72
2021/07/02 03:43:51;;;;;;;27.88;13.55;;;;;;;11.75;91.88;100197.28;4978508;28;20054;-69
2021/07/02 03:46:17;;;;;;;23.55;12.43;;;;;;;11.79;92.26;100206.84;4979471;28;20109;-71
2021/07/02 03:48:44;;;;;;;22.77;12.80;;;;;;;11.78;92.71;100210.44;4979428;28;20058;-71
2021/07/02 03:51:11;;;;;;;22.08;13.60;;;;;;;11.78;92.04;100207.78;4979325;28;20055;-69
2021/07/02 03:53:37;;;;;;;23.75;13.40;;;;;;;11.73;93.10;100209.91;4978592;28;20114;-69
2021/07/02 03:56:06;;;;;;;25.05;14.43;;;;;;;11.69;93.50;100208.38;4978405;28;20047;-72
2021/07/02 03:58:33;;;;;;;24.05;13.30;;;;;;;11.67;93.42;100210.31;4979301;28;20109;-72
2021/07/02 04:01:00;;;;;;;22.50;14.27;;;;;;;11.68;92.67;100220.88;4979197;28;20058;-72
2021/07/02 04:03:31;;;;;;;22.92;13.60;;;;;;;11.62;92.78;100201.72;4979401;28;20058;-72
2021/07/02 04:05:59;;;;;;;23.13;13.35;;;;;;;11.64;93.67;100211.38;4978894;28;20515;-71
2021/07/02 04:08:26;;;;;;;23.50;13.80;;;;;;;11.65;93.72;100218.41;4979156;28;20050;-69
2021/07/02 04:10:53;;;;;;;22.27;13.63;;;;;;;11.64;93.99;100216.72;4978705;28;20097;-70
2021/07/02 04:13:20;;;;;;;24.20;14.25;;;;;;;11.65;94.02;100220.22;4978604;28;20051;-70
2021/07/02 04:15:48;;;;;;;27.83;13.95;;;;;;;11.60;94.08;100227.72;4977770;28;20105;-71
2021/07/02 04:18:15;;;;;;;21.55;13.27;;;;;;;11.63;93.69;100227.50;4977672;28;20055;-71
2021/07/02 04:20:42;;;;;;;22.58;14.57;;;;;;;11.59;94.29;100228.66;4989996;28;20515;-71
2021/07/02 04:23:09;;;;;;;27.02;13.75;;;;;;;11.62;93.88;100225.78;4998302;28;20054;-72
2021/07/02 04:25:35;;;;;;;27.40;14.48;;;;;;;11.63;94.27;100227.50;4997170;28;20054;-71
2021/07/02 04:28:02;;;;;;;24.35;14.57;;;;;;;11.63;94.00;100227.50;4997094;28;20093;-70
2021/07/02 04:30:29;;;;;;;24.75;13.63;;;;;;;11.60;94.11;100222.34;4997815;28;20057;-72
2021/07/02 04:32:56;;;;;;;28.15;14.63;;;;;;;11.69;95.79;100227.09;4997999;28;20097;-69
2021/07/02 04:35:22;;;;;;;30.40;14.45;;;;;;;11.64;94.69;100213.16;4980493;28;20375;-68
2021/07/02 04:37:49;;;;;;;25.73;13.80;;;;;;;11.72;94.23;100216.19;4997029;28;20094;-70
2021/07/02 04:40:16;;;;;;;24.83;13.65;;;;;;;11.78;94.10;100215.78;4997689;28;20436;-72
2021/07/02 04:42:44;;;;;;;24.45;13.95;;;;;;;11.72;94.30;100207.31;4997785;28;20108;-71
2021/07/02 04:45:11;;;;;;;25.92;14.57;;;;;;;11.70;94.36;100212.78;4997829;28;20105;-71
2021/07/02 04:47:38;;;;;;;27.15;13.73;;;;;;;11.74;94.25;100214.31;4996897;28;20065;-70
2021/07/02 04:50:06;;;;;;;30.85;14.20;;;;;;;11.71;95.58;100214.47;4997689;28;20050;-72
2021/07/02 04:52:33;;;;;;;23.65;13.95;;;;;;;11.68;95.22;100212.84;4996663;28;20054;-71
2021/07/02 04:55:01;;;;;;;25.48;14.15;;;;;;;11.62;95.69;100202.59;4997965;28;20050;-70
2021/07/02 04:57:28;;;;;;;25.77;14.05;;;;;;;11.72;94.99;100210.00;4997767;28;20117;-72
2021/07/02 04:59:59;;;;;;;26.95;14.30;;;;;;;11.73;94.77;100214.38;4997308;28;20101;-70
2021/07/02 05:02:26;;;;;;;22.92;13.15;;;;;;;11.69;94.84;100216.41;4997513;28;20054;-72
2021/07/02 05:04:54;;;;;;;27.45;13.98;;;;;;;11.71;95.13;100219.81;4997166;28;20440;-70
2021/07/02 05:07:20;;;;;;;22.55;13.75;;;;;;;11.69;95.28;100211.06;4996450;28;20054;-72
2021/07/02 05:09:47;;;;;;;31.05;15.20;;;;;;;11.67;95.07;100218.34;4997259;28;20046;-69
2021/07/02 05:12:14;;;;;;;26.10;13.40;;;;;;;11.67;95.13;100211.16;4997486;28;20168;-71
2021/07/02 05:14:41;;;;;;;24.70;14.35;;;;;;;11.66;95.46;100205.94;4996812;28;20120;-69
2021/07/02 05:17:08;;;;;;;28.35;14.80;;;;;;;11.78;94.52;100217.63;4997298;28;20054;-70
2021/07/02 05:19:35;;;;;;;23.50;13.68;;;;;;;11.71;94.53;100197.59;4994575;28;20477;-70
2021/07/02 05:22:02;;;;;;;22.92;13.20;;;;;;;11.75;95.14;100213.34;4976794;28;20361;-71
2021/07/02 05:24:29;;;;;;;21.80;13.50;;;;;;;11.77;95.17;100208.75;4977374;28;20101;-72
2021/07/02 05:26:55;;;;;;;24.27;14.13;;;;;;;11.82;94.10;100201.28;4977739;28;20050;-70
2021/07/02 05:29:22;;;;;;;22.98;13.95;;;;;;;12.05;93.24;100214.13;4977211;28;20046;-70
2021/07/02 05:31:49;;;;;;;25.20;13.80;;;;;;;12.12;93.20;100222.59;4977244;28;20425;-72
2021/07/02 05:34:15;;;;;;;20.67;12.60;;;;;;;12.28;92.87;100215.25;4977281;28;20054;-73
2021/07/02 05:36:42;;;;;;;20.30;12.70;;;;;;;12.43;91.45;100210.66;4976471;28;20061;-73
2021/07/02 05:39:09;;;;;;;19.23;13.00;;;;;;;12.59;91.09;100215.84;4977391;28;20054;-70
2021/07/02 05:41:35;;;;;;;18.90;11.60;;;;;;;12.82;89.91;100210.72;4977252;28;20054;-69
2021/07/02 05:44:02;;;;;;;22.38;12.95;;;;;;;12.90;89.52;100218.22;4977020;28;20105;-72
2021/07/02 05:46:29;;;;;;;25.25;12.02;;;;;;;12.94;89.52;100218.84;4977079;28;20437;-73
2021/07/02 05:48:56;;;;;;;20.00;12.07;;;;;;;13.01;88.72;100220.13;4977334;28;20050;-71
2021/07/02 05:51:23;;;;;;;23.80;12.30;;;;;;;13.08;88.97;100221.41;4976151;28;20051;-70
2021/07/02 05:53:49;;;;;;;22.38;11.68;;;;;;;13.14;89.85;100223.66;4980049;28;20050;-69
2021/07/02 05:56:16;;;;;;;23.50;12.85;;;;;;;13.13;87.90;100207.72;4991578;28;20050;-74
2021/07/02 05:58:43;;;;;;;17.92;10.90;;;;;;;13.29;87.17;100229.75;4991435;28;20058;-73
2021/07/02 06:01:10;;;;;;;20.70;10.25;;;;;;;13.44;86.12;100233.16;4985080;28;20178;-73
2021/07/02 06:03:37;;;;;;;17.55;10.02;;;;;;;13.45;86.52;100234.00;4990416;28;20344;-72
2021/07/02 06:06:18;;;;;;;16.35;9.65;;;;;;;13.36;86.41;100222.16;4985437;28;20050;-73
2021/07/02 06:08:46;;;;;;;14.48;9.00;;;;;;;13.20;86.89;100198.25;4985603;28;20093;-72
2021/07/02 06:11:13;;;;;;;15.55;9.82;;;;;;;13.36;86.65;100234.69;4986856;28;20050;-76
2021/07/02 06:13:40;;;;;;;12.75;9.88;;;;;;;13.31;86.31;100229.66;4985906;28;20413;-81
2021/07/02 06:16:07;;;;;;;19.80;10.00;;;;;;;13.49;85.38;100226.63;4985308;28;20491;-80
2021/07/02 06:18:34;;;;;;;16.33;9.52;;;;;;;13.47;86.82;100234.81;4978048;28;20137;-71
2021/07/02 06:21:01;;;;;;;18.75;9.52;;;;;;;13.51;86.87;100232.75;4990238;28;20082;-69
2021/07/02 06:23:34;;;;;;;16.80;8.90;;;;;;;13.68;86.18;100228.84;4994756;28;20073;-70
2021/07/02 06:26:04;;;;;;;20.55;9.50;;;;;;;13.86;83.99;100240.03;4995065;28;20085;-69
2021/07/02 06:28:31;;;;;;;14.38;8.98;;;;;;;13.99;83.20;100235.47;4994760;28;20364;-70
2021/07/02 06:30:58;;;;;;;16.38;8.80;;;;;;;14.03;84.00;100237.94;4994357;28;20419;-69
2021/07/02 06:33:26;;;;;;;17.40;9.43;;;;;;;14.00;85.26;100236.31;4993627;28;20046;-69
2021/07/02 06:35:53;;;;;;;14.63;9.68;;;;;;;14.03;84.05;100237.94;4994568;28;20081;-69
2021/07/02 06:38:19;;;;;;;17.17;10.80;;;;;;;13.99;84.91;100239.97;4992822;28;20484;-69
2021/07/02 06:40:46;;;;;;;19.48;8.88;;;;;;;13.97;85.50;100239.25;4995152;28;20055;-70
2021/07/02 06:43:13;;;;;;;16.65;9.70;;;;;;;13.94;85.53;100240.31;4994411;28;20054;-70
2021/07/02 06:45:41;;;;;;;17.15;9.70;;;;;;;13.97;84.18;100247.28;4994516;28;20050;-70
2021/07/02 06:48:07;;;;;;;15.45;8.77;;;;;;;13.98;84.60;100251.69;4995896;28;20082;-70
2021/07/02 06:50:40;;;;;;;15.27;8.75;;;;;;;14.03;85.31;100251.34;4992129;28;20121;-70
2021/07/02 06:53:07;;;;;;;18.65;9.07;;;;;;;14.08;86.13;100246.50;4990732;28;20054;-71
2021/07/02 06:55:35;;;;;;;18.55;8.60;;;;;;;14.10;85.64;100250.78;4994351;28;20051;-71
2021/07/02 06:58:03;;;;;;;19.77;9.63;;;;;;;14.12;84.55;100250.69;4993455;28;20348;-72
2021/07/02 07:00:31;;;;;;;14.32;8.50;;;;;;;14.12;84.26;100250.69;4994497;28;20050;-72
2021/07/02 07:02:57;;;;;;;16.95;8.95;;;;;;;14.19;83.71;100251.94;4995096;28;20082;-72
2021/07/02 07:05:24;;;;;;;17.83;8.68;;;;;;;14.26;84.75;100246.94;4994477;28;20439;-72
2021/07/02 07:07:51;;;;;;;22.65;9.50;;;;;;;14.33;85.32;100240.13;4993068;28;20065;-72
2021/07/02 07:10:17;;;;;;;14.48;8.20;;;;;;;14.36;85.56;100247.97;4997508;28;20158;-72
2021/07/02 07:12:44;;;;;;;15.63;10.00;;;;;;;14.39;83.79;100249.56;4999474;28;20058;-72
2021/07/02 07:15:12;;;;;;;17.70;8.75;;;;;;;14.37;85.19;100257.75;4999267;28;20062;-70
2021/07/02 07:17:38;;;;;;;17.88;8.77;;;;;;;14.42;83.75;100254.69;4999082;28;20467;-70
2021/07/02 07:20:06;;;;;;;12.32;8.32;;;;;;;14.58;84.42;100251.69;4991911;28;20115;-70
2021/07/02 07:22:32;;;;;;;20.63;9.70;;;;;;;14.82;81.82;100258.03;4979946;28;20085;-70
2021/07/02 07:25:00;;;;;;;17.60;8.90;;;;;;;14.90;81.90;100263.66;4985553;28;20090;-71
2021/07/02 07:27:27;;;;;;;15.35;8.48;;;;;;;14.92;83.35;100265.25;4998389;28;20440;-70
2021/07/02 07:29:53;;;;;;;14.45;9.05;;;;;;;14.94;83.34;100265.13;4997882;28;20411;-71
2021/07/02 07:32:20;;;;;;;16.73;8.70;;;;;;;15.03;81.33;100267.09;4998781;28;20416;-70
2021/07/02 07:34:56;;;;;;;13.63;8.82;;;;;;;15.13;80.30;100263.66;4997820;28;20360;-70
2021/07/02 07:37:23;;;;;;;13.73;8.07;;;;;;;15.10;81.23;100263.94;4998915;28;20046;-70
2021/07/02 07:39:50;;;;;;;21.35;9.30;;;;;;;15.12;81.15;100264.66;4998932;28;20050;-70
2021/07/02 07:42:17;;;;;;;12.75;8.93;;;;;;;15.07;82.96;100271.25;4998782;28;20050;-70
2021/07/02 07:44:44;;;;;;;19.13;9.13;;;;;;;15.18;81.44;100262.34;4998966;28;20046;-70
2021/07/02 07:47:11;;;;;;;13.48;9.30;;;;;;;15.24;82.05;100263.69;4999026;28;20066;-70
2021/07/02 07:49:38;;;;;;;20.40;9.57;;;;;;;15.30;79.50;100265.88;4998725;28;20054;-71
2021/07/02 07:54:39;;;;;;;16.02;9.35;;;;;;;15.52;78.29;100272.25;4999724;28;20058;-71
2021/07/02 07:57:06;;;;;;;13.88;8.63;;;;;;;15.70;75.28;100277.13;4999007;28;20347;-72
2021/07/02 07:59:34;;;;;;;20.02;10.20;;;;;;;15.69;75.43;100278.13;4997369;28;20058;-72
2021/07/02 08:02:01;;;;;;;15.43;10.35;;;;;;;15.84;76.26;100276.00;4997390;28;20129;-71
2021/07/02 08:04:28;;;;;;;16.65;8.93;;;;;;;16.01;76.61;100270.13;4997631;28;20062;-71
2021/07/02 08:06:55;;;;;;;14.77;8.68;;;;;;;16.29;75.44;100266.97;4997747;28;20050;-72
2021/07/02 08:09:22;;;;;;;15.77;9.52;;;;;;;16.40;75.08;100274.16;4996996;28;20113;-72
2021/07/02 08:11:48;;;;;;;19.38;10.10;;;;;;;16.36;72.91;100270.00;4998256;28;20047;-72
2021/07/02 08:14:15;;;;;;;20.50;9.18;;;;;;;16.33;73.76;100273.81;4998124;28;20105;-72
2021/07/02 08:16:42;;;;;;;19.42;9.43;;;;;;;16.13;72.86;100270.94;4998463;28;20054;-71
2021/07/02 08:19:08;;;;;;;25.23;10.95;;;;;;;16.05;72.98;100278.78;4998362;28;20050;-71
2021/07/02 08:21:35;;;;;;;20.63;10.45;;;;;;;16.20;75.30;100283.88;4996860;28;20050;-71
2021/07/02 08:24:03;;;;;;;20.83;11.85;;;;;;;16.42;72.18;100282.97;4997662;28;20088;-71
2021/07/02 08:26:29;;;;;;;19.83;12.23;;;;;;;16.59;71.54;100272.59;4997310;28;20507;-71
2021/07/02 08:31:41;;;;;;;20.35;11.63;;;;;;;16.52;72.49;100267.72;4997685;28;20050;-71
2021/07/02 08:34:08;;;;;;;17.08;11.73;;;;;;;16.32;73.25;100272.09;4998087;28;20112;-71
2021/07/02 08:36:35;;;;;;;19.92;11.80;;;;;;;16.34;73.22;100269.28;4997829;28;20090;-70
2021/07/02 08:39:03;;;;;;;21.73;12.35;;;;;;;16.49;73.12;100256.34;4997977;28;20051;-71
2021/07/02 08:41:31;;;;;;;18.45;11.27;;;;;;;16.66;73.46;100261.16;4997942;28;20051;-73
2021/07/02 08:43:58;;;;;;;26.35;11.98;;;;;;;16.70;72.19;100265.31;4996691;28;20108;-71
2021/07/02 08:46:26;;;;;;;18.48;11.40;;;;;;;16.91;72.82;100268.97;4996173;28;20109;-71
2021/07/02 08:48:53;;;;;;;22.15;12.30;;;;;;;17.20;69.60;100271.00;4997001;28;20062;-71
2021/07/02 08:51:19;;;;;;;21.33;12.02;;;;;;;17.58;68.02;100272.19;4996624;28;20189;-71
2021/07/02 08:53:46;;;;;;;20.95;10.82;;;;;;;17.65;67.91;100267.06;4997080;28;20057;-71
2021/07/02 08:56:19;;;;;;;19.88;10.55;;;;;;;17.70;66.76;100278.31;4996827;28;20065;-71
2021/07/02 08:58:46;;;;;;;19.20;10.55;;;;;;;17.75;65.75;100276.06;4996994;28;20058;-74
2021/07/02 09:01:48;;;;;;;20.38;10.63;;;;;;;17.72;67.17;100275.50;4996949;28;20105;-74
2021/07/02 09:04:17;;;;;;;19.52;10.35;;;;;;;17.88;66.98;100270.41;4972613;28;20050;-75
2021/07/02 09:07:02;;;;;;;17.55;11.05;;;;;;;17.84;65.36;100278.91;4984788;28;20498;-72
2021/07/02 09:09:48;;;;;;;19.48;10.23;;;;;;;17.90;67.97;100283.78;4994431;28;20077;-74
2021/07/02 09:12:20;;;;;;;17.05;10.88;;;;;;;17.83;66.04;100279.91;4993250;28;20050;-73
2021/07/02 09:14:59;;;;;;;19.55;10.45;;;;;;;17.88;66.22;100285.75;4995852;28;20113;-74
2021/07/02 09:17:26;;;;;;;18.05;10.40;;;;;;;17.93;68.13;100280.81;4997213;28;20106;-71
2021/07/02 09:20:19;;;;;;;22.40;10.50;;;;;;;18.01;65.94;100277.41;4996744;28;20078;-73
2021/07/02 09:22:46;;;;;;;22.17;10.60;;;;;;;18.39;64.89;100280.31;4996911;28;20050;-73
2021/07/02 09:25:24;;;;;;;15.60;10.27;;;;;;;18.31;66.60;100284.56;4997097;28;20054;-73
2021/07/02 09:27:52;;;;;;;15.93;9.55;;;;;;;18.36;66.50;100288.72;4995964;28;20050;-72
2021/07/02 09:30:24;;;;;;;18.10;10.48;;;;;;;18.30;65.69;100279.31;4996761;28;20436;-76
2021/07/02 09:33:04;;;;;;;15.57;10.23;;;;;;;18.13;68.90;100278.16;4996564;28;20077;-74
2021/07/02 09:35:50;;;;;;;20.73;10.48;;;;;;;18.20;69.77;100290.13;4996870;28;20050;-72
2021/07/02 09:38:19;;;;;;;22.52;11.30;;;;;;;18.04;68.76;100277.97;4976539;28;20051;-74
2021/07/02 09:40:48;;;;;;;21.47;11.53;;;;;;;18.21;67.56;100285.56;4977231;28;20047;-73
2021/07/02 09:43:17;;;;;;;21.02;10.50;;;;;;;18.20;67.69;100287.44;4976921;28;20051;-74
2021/07/02 09:45:50;;;;;;;14.30;10.43;;;;;;;18.29;67.38;100286.56;4977466;28;20058;-72
2021/07/02 09:48:18;;;;;;;19.77;10.00;;;;;;;18.29;71.01;100288.41;4977303;28;20059;-73
2021/07/02 09:50:56;;;;;;;17.83;9.35;;;;;;;18.30;70.48;100288.28;4986654;28;20046;-71
2021/07/02 09:53:27;;;;;;;19.60;10.88;;;;;;;18.44;68.58;100294.25;4996410;28;20089;-74
2021/07/02 09:55:57;;;;;;;15.20;9.60;;;;;;;18.77;68.75;100299.34;4996687;28;20050;-74
2021/07/02 09:58:36;;;;;;;20.60;9.40;;;;;;;18.85;67.24;100289.53;4996936;28;20104;-71
2021/07/02 10:01:04;;;;;;;21.17;9.70;;;;;;;19.20;68.58;100289.91;4995195;28;20050;-72
2021/07/02 10:03:31;;;;;;;25.23;9.63;;;;;;;19.43;68.48;100286.00;4995518;28;20701;-71
2021/07/02 10:06:01;;;;;;;17.48;8.98;;;;;;;19.63;64.85;100289.47;4995952;28;20058;-72
2021/07/02 10:08:38;;;;;;;19.25;9.27;;;;;;;19.63;65.27;100286.75;4995883;28;20046;-72
2021/07/02 10:11:07;;;;;;;15.55;8.15;;;;;;;19.77;65.03;100302.50;4995914;28;20108;-71
2021/07/02 10:13:37;;;;;;;13.07;8.40;;;;;;;19.85;64.11;100303.59;4995634;28;20432;-71
2021/07/02 10:16:07;;;;;;;12.18;7.45;;;;;;;19.70;66.29;100308.66;4994637;28;20058;-71
2021/07/02 10:18:44;;;;;;;15.02;8.75;;;;;;;19.89;64.31;100311.25;4996418;28;20089;-71
2021/07/02 10:21:11;;;;;;;12.57;8.10;;;;;;;19.73;62.03;100302.94;4979612;28;20050;-72
2021/07/02 10:23:44;;;;;;;11.48;7.38;;;;;;;19.64;62.59;100302.84;4976798;28;20050;-72
2021/07/02 10:26:13;;;;;;;16.27;7.25;;;;;;;19.67;62.89;100302.53;4976753;28;20404;-72
2021/07/02 10:28:43;;;;;;;11.97;7.10;;;;;;;19.94;65.13;100308.13;4976880;28;20401;-72
2021/07/02 10:31:11;;;;;;;9.45;7.40;;;;;;;20.06;61.37;100300.66;4976194;28;20051;-72
2021/07/02 10:33:54;;;;;;;11.52;8.25;;;;;;;20.07;60.99;100307.78;4976245;28;20051;-72
2021/07/02 10:36:21;;;;;;;10.52;7.22;;;;;;;20.29;62.02;100303.78;4976328;28;20101;-72
2021/07/02 10:38:50;;;;;;;13.63;7.47;;;;;;;20.13;63.88;100303.59;4976370;28;20106;-72
2021/07/02 10:41:19;;;;;;;9.82;6.32;;;;;;;20.24;60.61;100294.38;4975390;28;20055;-72
2021/07/02 10:44:06;;;;;;;9.07;6.30;;;;;;;20.80;61.91;100303.22;4975828;28;20058;-72
2021/07/02 10:46:36;;;;;;;11.25;7.97;;;;;;;20.76;58.79;100305.38;4976637;28;20046;-72
2021/07/02 10:49:03;;;;;;;18.10;6.78;;;;;;;20.81;58.64;100302.19;4975347;28;20059;-72
2021/07/02 10:51:29;;;;;;;11.13;6.85;;;;;;;20.54;58.70;100308.59;4991619;28;20046;-72
2021/07/02 10:54:19;;;;;;;14.82;6.30;;;;;;;20.48;59.78;100301.91;4995552;28;20054;-72
2021/07/02 10:56:58;;;;;;;13.23;6.35;;;;;;;20.67;60.78;100300.91;5011090;28;20101;-72
2021/07/02 10:59:37;;;;;;;11.27;6.30;;;;;;;20.73;59.21;100303.00;4995992;28;20341;-71
2021/07/02 11:02:13;;;;;;;11.85;6.18;;;;;;;20.72;59.22;100309.44;4996203;28;20058;-71
2021/07/02 11:04:41;;;;;;;11.25;5.82;;;;;;;20.54;59.08;100305.88;4995533;28;20105;-71
2021/07/02 11:09:55;;;;;;;10.85;6.28;;;;;;;21.00;58.93;100300.34;4995465;28;20054;-71
2021/07/02 11:12:30;;;;;;;8.93;5.70;;;;;;;21.16;58.33;100305.03;4994709;28;20089;-71
2021/07/02 11:15:03;;;;;;;9.40;6.47;;;;;;;21.47;57.71;100309.97;4995255;28;20066;-70
2021/07/02 11:17:35;;;;;;;8.88;5.82;;;;;;;21.39;56.84;100299.91;4995613;28;20124;-69
2021/07/02 11:20:08;;;;;;;9.43;5.95;;;;;;;21.02;58.53;100309.16;4995232;28;20078;-71
2021/07/02 11:22:46;;;;;;;7.97;5.85;;;;;;;20.93;59.73;100300.13;4995674;28;20058;-70
2021/07/02 11:25:35;;;;;;;11.27;5.65;;;;;;;20.92;59.34;100303.81;4995344;28;20157;-70